sensor_id;sensor_type;location;lat;lon;timestamp;pressure;altitude;pressure_sealevel;temperature;humidity
13709;BME280;54933;51.908;7.730;2023-04-04T00:01:58;102354.22;;;20.86;58.85
13709;BME280;54933;51.908;7.730;2023-04-04T00:04:27;102354.22;;;20.86;58.85
13709;BME280;54933;51.908;7.730;2023-04-04T00:06:53;102359.63;;;20.86;58.81
13709;BME280;54933;51.908;7.730;2023-04-04T00:09:19;102365.91;;;20.86;58.99
13709;BME280;54933;51.908;7.730;2023-04-04T00:11:45;102359.63;;;20.86;58.98
13709;BME280;54933;51.908;7.730;2023-04-04T00:14:11;102362.16;;;20.87;58.93
13709;BME280;54933;51.908;7.730;2023-04-04T00:16:36;102346.81;;;20.88;58.98
13709;BME280;54933;51.908;7.730;2023-04-04T00:19:02;102361.16;;;20.88;59.07
13709;BME280;54933;51.908;7.730;2023-04-04T00:21:27;102358.47;;;20.88;58.90
13709;BME280;54933;51.908;7.730;2023-04-04T00:23:54;102361.81;;;20.90;59.03
13709;BME280;54933;51.908;7.730;2023-04-04T00:26:19;102354.72;;;20.89;58.94
13709;BME280;54933;51.908;7.730;2023-04-04T00:28:46;102360.13;;;20.89;58.86
13709;BME280;54933;51.908;7.730;2023-04-04T00:31:11;102351.00;;;20.90;58.82
13709;BME280;54933;51.908;7.730;2023-04-04T00:33:36;102349.31;;;20.89;59.00
13709;BME280;54933;51.908;7.730;2023-04-04T00:36:02;102340.19;;;20.90;58.86
13709;BME280;54933;51.908;7.730;2023-04-04T00:38:27;102337.47;;;20.90;58.93
13709;BME280;54933;51.908;7.730;2023-04-04T00:40:54;102339.38;;;20.90;58.84
13709;BME280;54933;51.908;7.730;2023-04-04T00:43:20;102341.88;;;20.91;58.84
13709;BME280;54933;51.908;7.730;2023-04-04T00:45:45;102338.50;;;20.89;58.79
13709;BME280;54933;51.908;7.730;2023-04-04T00:48:11;102351.00;;;20.90;58.97
13709;BME280;54933;51.908;7.730;2023-04-04T00:50:37;102339.00;;;20.93;58.90
13709;BME280;54933;51.908;7.730;2023-04-04T00:53:02;102346.25;;;20.92;58.72
13709;BME280;54933;51.908;7.730;2023-04-04T00:55:27;102343.56;;;20.92;58.73
13709;BME280;54933;51.908;7.730;2023-04-04T01:00:18;102344.41;;;20.93;58.68
13709;BME280;54933;51.908;7.730;2023-04-04T01:02:44;102336.47;;;20.91;58.77
13709;BME280;54933;51.908;7.730;2023-04-04T01:05:09;102338.16;;;20.92;58.69
13709;BME280;54933;51.908;7.730;2023-04-04T01:07:35;102345.22;;;20.93;58.85
13709;BME280;54933;51.908;7.730;2023-04-04T01:10:00;102344.22;;;20.94;58.95
13709;BME280;54933;51.908;7.730;2023-04-04T01:12:28;102334.78;;;20.90;58.66
13709;BME280;54933;51.908;7.730;2023-04-04T01:14:53;102330.03;;;20.92;58.77
13709;BME280;54933;51.908;7.730;2023-04-04T01:17:19;102339.19;;;20.91;58.74
13709;BME280;54933;51.908;7.730;2023-04-04T01:22:29;102335.44;;;20.92;58.83
13709;BME280;54933;51.908;7.730;2023-04-04T01:24:55;102344.41;;;20.93;58.93
13709;BME280;54933;51.908;7.730;2023-04-04T01:27:20;102333.59;;;20.93;58.91
13709;BME280;54933;51.908;7.730;2023-04-04T01:29:46;102327.34;;;20.92;59.04
13709;BME280;54933;51.908;7.730;2023-04-04T01:32:18;102324.47;;;20.94;58.94
13709;BME280;54933;51.908;7.730;2023-04-04T01:37:20;102326.16;;;20.95;58.93
13709;BME280;54933;51.908;7.730;2023-04-04T01:39:55;102329.00;;;20.93;58.85
13709;BME280;54933;51.908;7.730;2023-04-04T01:42:24;102318.22;;;20.93;58.98
13709;BME280;54933;51.908;7.730;2023-04-04T01:44:56;102322.63;;;20.94;58.94
13709;BME280;54933;51.908;7.730;2023-04-04T01:47:22;102315.34;;;20.95;58.91
13709;BME280;54933;51.908;7.730;2023-04-04T01:49:47;102313.66;;;20.94;58.98
13709;BME280;54933;51.908;7.730;2023-04-04T01:52:13;102316.19;;;20.95;58.97
13709;BME280;54933;51.908;7.730;2023-04-04T01:54:38;102314.50;;;20.94;58.96
13709;BME280;54933;51.908;7.730;2023-04-04T01:57:03;102309.09;;;20.94;58.84
13709;BME280;54933;51.908;7.730;2023-04-04T01:59:28;102314.50;;;20.94;58.95
13709;BME280;54933;51.908;7.730;2023-04-04T02:01:54;102311.81;;;20.94;59.01
13709;BME280;54933;51.908;7.730;2023-04-04T02:04:19;102314.50;;;20.94;59.00
13709;BME280;54933;51.908;7.730;2023-04-04T02:06:45;102318.88;;;20.95;58.93
13709;BME280;54933;51.908;7.730;2023-04-04T02:09:11;102317.88;;;20.96;58.99
13709;BME280;54933;51.908;7.730;2023-04-04T02:11:36;102317.03;;;20.96;59.06
13709;BME280;54933;51.908;7.730;2023-04-04T02:14:01;102306.22;;;20.96;59.23
13709;BME280;54933;51.908;7.730;2023-04-04T02:16:27;102312.47;;;20.96;59.12
13709;BME280;54933;51.908;7.730;2023-04-04T02:18:53;102306.22;;;20.96;59.07
13709;BME280;54933;51.908;7.730;2023-04-04T02:21:18;102312.47;;;20.96;59.10
13709;BME280;54933;51.908;7.730;2023-04-04T02:23:43;102312.47;;;20.96;58.94
13709;BME280;54933;51.908;7.730;2023-04-04T02:26:08;102316.69;;;20.99;58.99
13709;BME280;54933;51.908;7.730;2023-04-04T02:28:34;102309.63;;;20.98;59.20
13709;BME280;54933;51.908;7.730;2023-04-04T02:31:00;102308.78;;;20.97;59.46
13709;BME280;54933;51.908;7.730;2023-04-04T02:33:26;102310.44;;;20.98;59.05
13709;BME280;54933;51.908;7.730;2023-04-04T02:35:51;102311.28;;;20.99;59.19
13709;BME280;54933;51.908;7.730;2023-04-04T02:38:17;102305.03;;;20.98;59.04
13709;BME280;54933;51.908;7.730;2023-04-04T02:40:44;102306.72;;;20.99;59.04
13709;BME280;54933;51.908;7.730;2023-04-04T02:43:09;102312.13;;;20.99;59.08
13709;BME280;54933;51.908;7.730;2023-04-04T02:45:35;102301.34;;;20.99;59.18
13709;BME280;54933;51.908;7.730;2023-04-04T02:48:00;102308.41;;;21.00;59.02
13709;BME280;54933;51.908;7.730;2023-04-04T02:50:26;102303.84;;;21.01;58.95
13709;BME280;54933;51.908;7.730;2023-04-04T02:52:51;102305.53;;;21.02;59.00
13709;BME280;54933;51.908;7.730;2023-04-04T02:55:18;102303.84;;;21.01;58.85
13709;BME280;54933;51.908;7.730;2023-04-04T02:57:49;102300.13;;;21.02;59.03
13709;BME280;54933;51.908;7.730;2023-04-04T03:00:15;102300.97;;;21.02;58.98
13709;BME280;54933;51.908;7.730;2023-04-04T03:02:42;102300.13;;;21.02;59.03
13709;BME280;54933;51.908;7.730;2023-04-04T03:05:07;102291.00;;;21.03;58.89
13709;BME280;54933;51.908;7.730;2023-04-04T03:07:33;102295.56;;;21.02;59.05
13709;BME280;54933;51.908;7.730;2023-04-04T03:09:58;102290.16;;;21.02;58.84
13709;BME280;54933;51.908;7.730;2023-04-04T03:12:23;102290.16;;;21.02;58.98
13709;BME280;54933;51.908;7.730;2023-04-04T03:14:48;102283.72;;;21.03;58.91
13709;BME280;54933;51.908;7.730;2023-04-04T03:17:14;102278.50;;;21.02;58.93
13709;BME280;54933;51.908;7.730;2023-04-04T03:19:39;102275.59;;;21.03;58.91
13709;BME280;54933;51.908;7.730;2023-04-04T03:22:05;102277.69;;;21.01;59.14
13709;BME280;54933;51.908;7.730;2023-04-04T03:24:30;102272.91;;;21.03;59.07
13709;BME280;54933;51.908;7.730;2023-04-04T03:26:58;102271.25;;;21.02;58.25
13709;BME280;54933;51.908;7.730;2023-04-04T03:29:23;102279.34;;;21.02;59.00
13709;BME280;54933;51.908;7.730;2023-04-04T03:31:48;102275.78;;;21.02;58.79
13709;BME280;54933;51.908;7.730;2023-04-04T03:34:13;102278.69;;;21.00;59.03
13709;BME280;54933;51.908;7.730;2023-04-04T03:36:39;102277.00;;;20.99;58.87
13709;BME280;54933;51.908;7.730;2023-04-04T03:39:05;102275.97;;;21.00;59.06
13709;BME280;54933;51.908;7.730;2023-04-04T03:41:30;102266.38;;;20.98;58.89
13709;BME280;54933;51.908;7.730;2023-04-04T03:43:56;102269.91;;;20.98;58.98
13709;BME280;54933;51.908;7.730;2023-04-04T03:46:21;102263.50;;;20.99;58.96
13709;BME280;54933;51.908;7.730;2023-04-04T03:48:46;102259.94;;;20.99;59.06
13709;BME280;54933;51.908;7.730;2023-04-04T03:51:11;102268.91;;;20.99;58.98
13709;BME280;54933;51.908;7.730;2023-04-04T03:53:37;102263.50;;;20.99;58.93
13709;BME280;54933;51.908;7.730;2023-04-04T03:56:02;102256.38;;;20.98;59.07
13709;BME280;54933;51.908;7.730;2023-04-04T03:58:27;102250.97;;;20.98;59.12
13709;BME280;54933;51.908;7.730;2023-04-04T04:00:54;102240.19;;;20.98;59.19
13709;BME280;54933;51.908;7.730;2023-04-04T04:03:19;102248.09;;;21.00;58.92
13709;BME280;54933;51.908;7.730;2023-04-04T04:05:45;102247.28;;;20.99;59.07
13709;BME280;54933;51.908;7.730;2023-04-04T04:08:10;102243.53;;;21.00;59.01
13709;BME280;54933;51.908;7.730;2023-04-04T04:10:36;102258.09;;;20.99;59.05
13709;BME280;54933;51.908;7.730;2023-04-04T04:13:01;102259.09;;;20.98;59.04
13709;BME280;54933;51.908;7.730;2023-04-04T04:15:26;102253.88;;;20.97;59.18
13709;BME280;54933;51.908;7.730;2023-04-04T04:17:52;102260.47;;;20.94;59.05
13709;BME280;54933;51.908;7.730;2023-04-04T04:20:17;102257.44;;;20.89;59.39
13709;BME280;54933;51.908;7.730;2023-04-04T04:22:45;102250.38;;;20.88;59.19
13709;BME280;54933;51.908;7.730;2023-04-04T04:25:14;102254.44;;;20.84;59.03
13709;BME280;54933;51.908;7.730;2023-04-04T04:27:39;102260.69;;;20.85;59.13
13709;BME280;54933;51.908;7.730;2023-04-04T04:30:06;102257.81;;;20.86;59.27
13709;BME280;54933;51.908;7.730;2023-04-04T04:32:31;102250.38;;;20.88;59.22
13709;BME280;54933;51.908;7.730;2023-04-04T04:34:56;102257.81;;;20.86;59.22
13709;BME280;54933;51.908;7.730;2023-04-04T04:37:22;102247.81;;;20.87;59.32
13709;BME280;54933;51.908;7.730;2023-04-04T04:39:49;102253.59;;;20.84;59.08
13709;BME280;54933;51.908;7.730;2023-04-04T04:42:16;102244.00;;;20.81;59.21
13709;BME280;54933;51.908;7.730;2023-04-04T04:44:41;102236.56;;;20.83;59.29
13709;BME280;54933;51.908;7.730;2023-04-04T04:47:06;102252.59;;;20.85;59.16
13709;BME280;54933;51.908;7.730;2023-04-04T04:49:31;102254.25;;;20.86;59.02
13709;BME280;54933;51.908;7.730;2023-04-04T04:51:57;102254.44;;;20.84;59.13
13709;BME280;54933;51.908;7.730;2023-04-04T04:54:22;102251.56;;;20.86;59.01
13709;BME280;54933;51.908;7.730;2023-04-04T04:56:47;102254.81;;;20.81;59.17
13709;BME280;54933;51.908;7.730;2023-04-04T04:59:12;102254.81;;;20.81;59.05
13709;BME280;54933;51.908;7.730;2023-04-04T05:01:39;102257.50;;;20.81;59.05
13709;BME280;54933;51.908;7.730;2023-04-04T05:04:05;102261.75;;;20.76;59.29
13709;BME280;54933;51.908;7.730;2023-04-04T05:06:30;102256.84;;;20.79;59.22
13709;BME280;54933;51.908;7.730;2023-04-04T05:08:55;102266.34;;;20.75;59.00
13709;BME280;54933;51.908;7.730;2023-04-04T05:11:20;102259.59;;;20.71;59.39
13709;BME280;54933;51.908;7.730;2023-04-04T05:13:46;102264.34;;;20.69;59.39
13709;BME280;54933;51.908;7.730;2023-04-04T05:16:11;102262.00;;;20.66;59.62
13709;BME280;54933;51.908;7.730;2023-04-04T05:18:37;102258.63;;;20.64;59.36
13709;BME280;54933;51.908;7.730;2023-04-04T05:21:02;102252.78;;;20.22;56.94
13709;BME280;54933;51.908;7.730;2023-04-04T05:23:27;102269.31;;;20.19;56.61
13709;BME280;54933;51.908;7.730;2023-04-04T05:25:53;102270.50;;;20.25;57.03
13709;BME280;54933;51.908;7.730;2023-04-04T05:28:19;102272.38;;;20.16;57.43
13709;BME280;54933;51.908;7.730;2023-04-04T05:30:45;102259.84;;;19.12;53.76
13709;BME280;54933;51.908;7.730;2023-04-04T05:33:10;102263.22;;;19.06;52.21
13709;BME280;54933;51.908;7.730;2023-04-04T05:35:36;102272.16;;;19.47;51.76
13709;BME280;54933;51.908;7.730;2023-04-04T05:38:01;102284.94;;;19.77;52.47
13709;BME280;54933;51.908;7.730;2023-04-04T05:40:27;102291.63;;;19.97;53.32
13709;BME280;54933;51.908;7.730;2023-04-04T05:42:56;102291.91;;;20.10;53.85
13709;BME280;54933;51.908;7.730;2023-04-04T05:45:22;102286.38;;;20.19;54.16
13709;BME280;54933;51.908;7.730;2023-04-04T05:47:48;102296.28;;;20.27;54.48
13709;BME280;54933;51.908;7.730;2023-04-04T05:50:13;102298.09;;;20.35;54.77
13709;BME280;54933;51.908;7.730;2023-04-04T05:52:38;102304.16;;;20.37;54.96
13709;BME280;54933;51.908;7.730;2023-04-04T05:55:04;102296.56;;;20.40;55.13
13709;BME280;54933;51.908;7.730;2023-04-04T05:57:30;102285.59;;;20.42;55.33
13709;BME280;54933;51.908;7.730;2023-04-04T05:59:56;102293.50;;;20.43;55.40
13709;BME280;54933;51.908;7.730;2023-04-04T06:02:22;102301.25;;;20.46;55.61
13709;BME280;54933;51.908;7.730;2023-04-04T06:04:47;102302.28;;;20.45;55.73
13709;BME280;54933;51.908;7.730;2023-04-04T06:07:12;102303.78;;;20.48;55.64
13709;BME280;54933;51.908;7.730;2023-04-04T06:09:38;102312.06;;;20.46;55.93
13709;BME280;54933;51.908;7.730;2023-04-04T06:12:04;102312.72;;;20.48;55.86
13709;BME280;54933;51.908;7.730;2023-04-04T06:14:30;102315.25;;;20.50;56.21
13709;BME280;54933;51.908;7.730;2023-04-04T06:16:55;102324.03;;;20.52;56.28
13709;BME280;54933;51.908;7.730;2023-04-04T06:19:21;102322.16;;;20.52;56.33
13709;BME280;54933;51.908;7.730;2023-04-04T06:21:46;102326.53;;;20.53;56.54
13709;BME280;54933;51.908;7.730;2023-04-04T06:24:11;102324.53;;;20.55;56.65
13709;BME280;54933;51.908;7.730;2023-04-04T06:26:37;102332.44;;;20.57;56.71
13709;BME280;54933;51.908;7.730;2023-04-04T06:29:02;102322.66;;;20.56;56.43
13709;BME280;54933;51.908;7.730;2023-04-04T06:31:28;102337.00;;;20.56;56.29
13709;BME280;54933;51.908;7.730;2023-04-04T06:33:54;102329.19;;;20.61;56.57
13709;BME280;54933;51.908;7.730;2023-04-04T06:36:19;102334.44;;;20.63;56.92
13709;BME280;54933;51.908;7.730;2023-04-04T06:38:45;102337.97;;;20.63;57.54
13709;BME280;54933;51.908;7.730;2023-04-04T06:41:10;102323.81;;;20.61;57.19
13709;BME280;54933;51.908;7.730;2023-04-04T06:43:36;102337.00;;;20.56;58.41
13709;BME280;54933;51.908;7.730;2023-04-04T06:46:01;102335.69;;;20.52;58.25
13709;BME280;54933;51.908;7.730;2023-04-04T06:48:27;102340.59;;;20.49;58.44
13709;BME280;54933;51.908;7.730;2023-04-04T06:50:52;102331.81;;;20.47;58.52
13709;BME280;54933;51.908;7.730;2023-04-04T06:53:17;102335.03;;;20.42;58.95
13709;BME280;54933;51.908;7.730;2023-04-04T06:55:43;102340.09;;;20.45;59.24
13709;BME280;54933;51.908;7.730;2023-04-04T06:58:08;102339.72;;;20.48;58.99
13709;BME280;54933;51.908;7.730;2023-04-04T07:00:33;102334.69;;;20.45;59.37
13709;BME280;54933;51.908;7.730;2023-04-04T07:02:59;102348.00;;;20.47;59.52
13709;BME280;54933;51.908;7.730;2023-04-04T07:05:25;102338.69;;;20.49;59.66
13709;BME280;54933;51.908;7.730;2023-04-04T07:07:51;102342.06;;;20.51;59.65
13709;BME280;54933;51.908;7.730;2023-04-04T07:10:19;102346.47;;;20.52;59.77
13709;BME280;54933;51.908;7.730;2023-04-04T07:12:45;102349.19;;;20.52;59.73
13709;BME280;54933;51.908;7.730;2023-04-04T07:15:10;102335.31;;;20.55;60.19
13709;BME280;54933;51.908;7.730;2023-04-04T07:17:36;102341.97;;;20.75;59.90
13709;BME280;54933;51.908;7.730;2023-04-04T07:20:03;102340.22;;;20.82;59.76
13709;BME280;54933;51.908;7.730;2023-04-04T07:22:29;102332.63;;;20.86;59.44
13709;BME280;54933;51.908;7.730;2023-04-04T07:24:55;102331.44;;;20.88;59.60
13709;BME280;54933;51.908;7.730;2023-04-04T07:27:20;102333.09;;;20.89;59.50
13709;BME280;54933;51.908;7.730;2023-04-04T07:29:45;102334.78;;;20.90;59.26
13709;BME280;54933;51.908;7.730;2023-04-04T07:32:11;102336.31;;;20.93;59.37
13709;BME280;54933;51.908;7.730;2023-04-04T07:34:36;102330.91;;;20.93;59.50
13709;BME280;54933;51.908;7.730;2023-04-04T07:37:01;102322.63;;;20.94;59.26
13709;BME280;54933;51.908;7.730;2023-04-04T07:39:26;102325.31;;;20.94;59.39
13709;BME280;54933;51.908;7.730;2023-04-04T07:41:52;102325.31;;;20.94;59.28
13709;BME280;54933;51.908;7.730;2023-04-04T07:44:17;102323.59;;;20.93;59.46
13709;BME280;54933;51.908;7.730;2023-04-04T07:46:42;102321.75;;;20.94;59.23
13709;BME280;54933;51.908;7.730;2023-04-04T07:49:08;102324.66;;;20.92;59.37
13709;BME280;54933;51.908;7.730;2023-04-04T07:53:59;102325.69;;;20.91;59.18
13709;BME280;54933;51.908;7.730;2023-04-04T07:58:51;102321.94;;;20.92;59.46
13709;BME280;54933;51.908;7.730;2023-04-04T08:03:41;102317.38;;;20.93;59.65
13709;BME280;54933;51.908;7.730;2023-04-04T08:06:07;102319.25;;;20.92;59.48
13709;BME280;54933;51.908;7.730;2023-04-04T08:08:32;102320.91;;;20.93;59.46
13709;BME280;54933;51.908;7.730;2023-04-04T08:10:57;102323.59;;;20.93;59.62
13709;BME280;54933;51.908;7.730;2023-04-04T08:13:22;102311.13;;;20.92;59.41
13709;BME280;54933;51.908;7.730;2023-04-04T08:15:48;102318.22;;;20.93;59.76
13709;BME280;54933;51.908;7.730;2023-04-04T08:18:13;102317.38;;;20.93;59.72
13709;BME280;54933;51.908;7.730;2023-04-04T08:20:39;102318.22;;;20.93;59.64
13709;BME280;54933;51.908;7.730;2023-04-04T08:23:04;102319.91;;;20.94;59.58
13709;BME280;54933;51.908;7.730;2023-04-04T08:25:30;102324.47;;;20.94;59.76
13709;BME280;54933;51.908;7.730;2023-04-04T08:27:55;102320.75;;;20.95;59.69
13709;BME280;54933;51.908;7.730;2023-04-04T08:30:21;102323.34;;;20.80;59.87
13709;BME280;54933;51.908;7.730;2023-04-04T08:32:46;102323.22;;;20.74;59.90
13709;BME280;54933;51.908;7.730;2023-04-04T08:35:12;102326.47;;;20.69;60.09
13709;BME280;54933;51.908;7.730;2023-04-04T08:37:43;102325.28;;;20.72;60.03
13709;BME280;54933;51.908;7.730;2023-04-04T08:40:09;102328.97;;;20.71;60.20
13709;BME280;54933;51.908;7.730;2023-04-04T08:42:34;102323.41;;;20.72;60.26
13709;BME280;54933;51.908;7.730;2023-04-04T08:45:02;102321.56;;;20.73;60.24
13709;BME280;54933;51.908;7.730;2023-04-04T08:47:30;102314.97;;;20.75;60.61
13709;BME280;54933;51.908;7.730;2023-04-04T08:50:02;102311.22;;;20.76;60.31
13709;BME280;54933;51.908;7.730;2023-04-04T08:52:29;102312.72;;;20.79;60.39
13709;BME280;54933;51.908;7.730;2023-04-04T08:54:55;102312.53;;;20.80;60.35
13709;BME280;54933;51.908;7.730;2023-04-04T08:57:21;102310.88;;;20.79;60.31
13709;BME280;54933;51.908;7.730;2023-04-04T08:59:47;102314.25;;;20.81;60.36
13709;BME280;54933;51.908;7.730;2023-04-04T09:04:41;102317.25;;;20.86;60.38
13709;BME280;54933;51.908;7.730;2023-04-04T09:07:08;102312.53;;;20.88;60.31
13709;BME280;54933;51.908;7.730;2023-04-04T09:09:34;102307.75;;;20.90;60.35
13709;BME280;54933;51.908;7.730;2023-04-04T09:12:02;102319.25;;;20.92;60.32
13709;BME280;54933;51.908;7.730;2023-04-04T09:14:30;102319.06;;;20.94;60.04
13709;BME280;54933;51.908;7.730;2023-04-04T09:16:56;102310.78;;;20.95;59.85
13709;BME280;54933;51.908;7.730;2023-04-04T09:19:22;102309.78;;;20.96;59.99
13709;BME280;54933;51.908;7.730;2023-04-04T09:21:48;102319.72;;;20.96;60.15
13709;BME280;54933;51.908;7.730;2023-04-04T09:24:13;102308.78;;;20.97;59.81
13709;BME280;54933;51.908;7.730;2023-04-04T09:26:50;102301.66;;;20.96;60.05
13709;BME280;54933;51.908;7.730;2023-04-04T09:29:17;102305.03;;;20.98;59.92
13709;BME280;54933;51.908;7.730;2023-04-04T09:31:43;102300.66;;;20.97;59.85
13709;BME280;54933;51.908;7.730;2023-04-04T09:34:17;102297.97;;;20.97;60.00
13709;BME280;54933;51.908;7.730;2023-04-04T09:36:46;102293.41;;;20.98;59.99
13709;BME280;54933;51.908;7.730;2023-04-04T09:39:12;102286.97;;;20.99;60.09
13709;BME280;54933;51.908;7.730;2023-04-04T09:41:40;102292.56;;;20.97;59.95
13709;BME280;54933;51.908;7.730;2023-04-04T09:44:06;102293.88;;;20.93;60.08
13709;BME280;54933;51.908;7.730;2023-04-04T09:46:35;102284.47;;;20.89;59.96
13709;BME280;54933;51.908;7.730;2023-04-04T09:49:01;102287.34;;;20.88;60.11
13709;BME280;54933;51.908;7.730;2023-04-04T09:51:33;102287.19;;;20.89;60.13
13709;BME280;54933;51.908;7.730;2023-04-04T09:54:21;102278.22;;;20.89;60.14
13709;BME280;54933;51.908;7.730;2023-04-04T09:56:47;102272.81;;;20.89;60.01
13709;BME280;54933;51.908;7.730;2023-04-04T09:59:13;102277.41;;;20.88;60.10
13709;BME280;54933;51.908;7.730;2023-04-04T10:01:38;102280.75;;;20.90;60.13
13709;BME280;54933;51.908;7.730;2023-04-04T10:04:03;102287.66;;;20.93;60.05
13709;BME280;54933;51.908;7.730;2023-04-04T10:06:30;102281.41;;;20.92;60.00
13709;BME280;54933;51.908;7.730;2023-04-04T10:08:55;102277.66;;;20.93;60.05
13709;BME280;54933;51.908;7.730;2023-04-04T10:11:34;102274.97;;;20.93;59.85
13709;BME280;54933;51.908;7.730;2023-04-04T10:14:00;102271.25;;;20.94;59.89
13709;BME280;54933;51.908;7.730;2023-04-04T10:16:31;102264.81;;;20.95;59.72
13709;BME280;54933;51.908;7.730;2023-04-04T10:18:57;102265.53;;;20.97;59.75
13709;BME280;54933;51.908;7.730;2023-04-04T10:21:24;102256.56;;;20.97;59.70
13709;BME280;54933;51.908;7.730;2023-04-04T10:23:51;102260.78;;;20.99;59.83
13709;BME280;54933;51.908;7.730;2023-04-04T10:26:18;102264.16;;;21.01;59.47
13709;BME280;54933;51.908;7.730;2023-04-04T10:28:43;102260.44;;;21.02;59.62
13709;BME280;54933;51.908;7.730;2023-04-04T10:31:21;102258.41;;;21.04;59.50
13709;BME280;54933;51.908;7.730;2023-04-04T10:36:51;102254.00;;;21.03;59.55
13709;BME280;54933;51.908;7.730;2023-04-04T10:42:14;102262.09;;;21.03;59.54
13709;BME280;54933;51.908;7.730;2023-04-04T10:44:43;102249.44;;;21.04;59.59
13709;BME280;54933;51.908;7.730;2023-04-04T10:47:20;102246.72;;;21.04;59.66
13709;BME280;54933;51.908;7.730;2023-04-04T10:49:48;102242.19;;;21.04;59.52
13709;BME280;54933;51.908;7.730;2023-04-04T10:52:19;102240.47;;;21.03;59.61
13709;BME280;54933;51.908;7.730;2023-04-04T10:54:45;102229.66;;;21.03;59.69
13709;BME280;54933;51.908;7.730;2023-04-04T10:57:12;102224.94;;;21.05;59.57
13709;BME280;54933;51.908;7.730;2023-04-04T11:00:04;102217.84;;;21.04;59.31
13709;BME280;54933;51.908;7.730;2023-04-04T11:02:54;102214.13;;;21.05;59.41
13709;BME280;54933;51.908;7.730;2023-04-04T11:05:26;102220.38;;;21.06;59.31
13709;BME280;54933;51.908;7.730;2023-04-04T11:07:56;102214.13;;;21.05;59.61
13709;BME280;54933;51.908;7.730;2023-04-04T11:10:26;102216.16;;;21.03;59.52
13709;BME280;54933;51.908;7.730;2023-04-04T11:12:53;102209.06;;;21.02;59.49
13709;BME280;54933;51.908;7.730;2023-04-04T11:15:23;102206.56;;;21.01;59.37
13709;BME280;54933;51.908;7.730;2023-04-04T11:17:59;102213.16;;;20.98;59.49
13709;BME280;54933;51.908;7.730;2023-04-04T11:20:34;102210.44;;;20.98;59.54
13709;BME280;54933;51.908;7.730;2023-04-04T11:23:01;102202.00;;;20.93;59.76
13709;BME280;54933;51.908;7.730;2023-04-04T11:25:30;102210.13;;;20.93;59.71
13709;BME280;54933;51.908;7.730;2023-04-04T11:27:57;102204.25;;;20.90;59.78
13709;BME280;54933;51.908;7.730;2023-04-04T11:30:23;102205.09;;;20.90;59.86
13709;BME280;54933;51.908;7.730;2023-04-04T11:32:49;102196.16;;;20.90;59.72
13709;BME280;54933;51.908;7.730;2023-04-04T11:35:15;102214.59;;;20.86;59.69
13709;BME280;54933;51.908;7.730;2023-04-04T11:40:15;102205.09;;;20.90;59.47
13709;BME280;54933;51.908;7.730;2023-04-04T11:42:41;102198.84;;;20.90;59.49
13709;BME280;54933;51.908;7.730;2023-04-04T11:45:07;102195.78;;;20.93;59.45
13709;BME280;54933;51.908;7.730;2023-04-04T11:47:34;102191.06;;;20.95;59.54
13709;BME280;54933;51.908;7.730;2023-04-04T11:50:00;102180.06;;;20.96;59.48
13709;BME280;54933;51.908;7.730;2023-04-04T11:52:32;102179.06;;;20.97;59.21
13709;BME280;54933;51.908;7.730;2023-04-04T11:54:57;102179.91;;;20.98;58.90
13709;BME280;54933;51.908;7.730;2023-04-04T11:57:23;102184.09;;;21.00;59.25
13709;BME280;54933;51.908;7.730;2023-04-04T11:59:49;102176.66;;;21.02;59.47
13709;BME280;54933;51.908;7.730;2023-04-04T12:02:18;102174.63;;;21.04;59.39
13709;BME280;54933;51.908;7.730;2023-04-04T12:04:45;102172.91;;;21.03;59.35
13709;BME280;54933;51.908;7.730;2023-04-04T12:07:11;102169.84;;;21.06;59.18
13709;BME280;54933;51.908;7.730;2023-04-04T12:09:38;102158.69;;;21.09;59.21
13709;BME280;54933;51.908;7.730;2023-04-04T12:12:04;102154.47;;;21.07;59.25
13709;BME280;54933;51.908;7.730;2023-04-04T12:14:32;102162.41;;;21.08;59.09
13709;BME280;54933;51.908;7.730;2023-04-04T12:16:57;102153.47;;;21.08;59.27
13709;BME280;54933;51.908;7.730;2023-04-04T12:19:24;102157.66;;;21.10;59.17
13709;BME280;54933;51.908;7.730;2023-04-04T12:21:52;102154.94;;;21.10;59.08
13709;BME280;54933;51.908;7.730;2023-04-04T12:24:18;102154.28;;;21.08;59.04
13709;BME280;54933;51.908;7.730;2023-04-04T12:26:46;102149.44;;;21.04;59.30
13709;BME280;54933;51.908;7.730;2023-04-04T12:29:14;102137.97;;;21.02;59.13
13709;BME280;54933;51.908;7.730;2023-04-04T12:31:42;102121.53;;;20.66;56.84
13709;BME280;54933;51.908;7.730;2023-04-04T12:34:20;102136.91;;;20.66;55.20
13709;BME280;54933;51.908;7.730;2023-04-04T12:36:52;102132.84;;;20.70;55.60
13709;BME280;54933;51.908;7.730;2023-04-04T12:39:19;102132.94;;;20.76;55.94
13709;BME280;54933;51.908;7.730;2023-04-04T12:42:06;102127.16;;;20.79;56.23
13709;BME280;54933;51.908;7.730;2023-04-04T12:44:34;102122.06;;;20.84;56.24
13709;BME280;54933;51.908;7.730;2023-04-04T12:47:02;102119.34;;;20.84;56.63
13709;BME280;54933;51.908;7.730;2023-04-04T12:49:29;102119.00;;;20.87;56.79
13709;BME280;54933;51.908;7.730;2023-04-04T12:51:55;102112.41;;;20.90;56.88
13709;BME280;54933;51.908;7.730;2023-04-04T12:56:55;102097.47;;;20.94;57.44
13709;BME280;54933;51.908;7.730;2023-04-04T12:59:21;102096.47;;;20.95;57.38
13709;BME280;54933;51.908;7.730;2023-04-04T13:01:49;102098.00;;;20.97;57.60
13709;BME280;54933;51.908;7.730;2023-04-04T13:04:15;102089.69;;;20.99;57.55
13709;BME280;54933;51.908;7.730;2023-04-04T13:06:45;102086.81;;;21.00;57.63
13709;BME280;54933;51.908;7.730;2023-04-04T13:09:17;102083.09;;;21.01;57.77
13709;BME280;54933;51.908;7.730;2023-04-04T13:12:05;102068.25;;;20.97;57.41
13709;BME280;54933;51.908;7.730;2023-04-04T13:14:58;102066.41;;;20.98;57.99
13709;BME280;54933;51.908;7.730;2023-04-04T13:17:24;102071.97;;;20.96;57.50